createdAt,value
2022-10-08T00:01:17.494Z,3.40
2022-10-08T00:03:47.447Z,4.25
2022-10-08T00:06:21.967Z,4.18
2022-10-08T00:09:07.891Z,2.30
2022-10-08T00:11:38.312Z,4.00
2022-10-08T00:14:06.960Z,2.85
2022-10-08T00:16:40.594Z,3.10
2022-10-08T00:19:13.894Z,2.80
2022-10-08T00:21:43.867Z,2.35
2022-10-08T00:24:14.944Z,3.17
2022-10-08T00:26:44.114Z,2.45
2022-10-08T00:29:14.441Z,3.13
2022-10-08T00:31:44.767Z,2.20
2022-10-08T00:34:15.329Z,2.70
2022-10-08T00:36:43.091Z,2.83
2022-10-08T00:39:15.199Z,3.47
2022-10-08T00:41:44.876Z,2.22
2022-10-08T00:44:51.200Z,3.58
2022-10-08T00:47:33.477Z,1.70
2022-10-08T00:50:45.483Z,2.95
2022-10-08T00:53:12.893Z,1.80
2022-10-08T00:55:43.822Z,3.30
2022-10-08T00:58:21.592Z,4.55
2022-10-08T01:00:49.824Z,2.40
2022-10-08T01:03:17.154Z,2.13
2022-10-08T01:06:15.258Z,2.80
2022-10-08T01:09:09.278Z,3.40
2022-10-08T01:11:47.178Z,3.53
2022-10-08T01:14:33.049Z,2.42
2022-10-08T01:17:13.995Z,1.98
2022-10-08T01:20:18.702Z,3.03
2022-10-08T01:23:04.657Z,4.03
2022-10-08T01:25:56.654Z,2.78
2022-10-08T01:28:30.829Z,3.13
2022-10-08T01:31:09.662Z,3.17
2022-10-08T01:33:59.423Z,2.85
2022-10-08T01:36:31.579Z,2.97
2022-10-08T01:39:05.396Z,2.08
2022-10-08T01:41:34.525Z,2.40
2022-10-08T01:44:13.532Z,2.08
2022-10-08T01:46:46.344Z,3.08
2022-10-08T01:49:18.596Z,1.65
2022-10-08T01:51:57.599Z,2.42
2022-10-08T01:54:28.680Z,2.45
2022-10-08T01:56:59.309Z,2.60
2022-10-08T01:59:33.709Z,3.15
2022-10-08T02:02:14.317Z,2.65
2022-10-08T02:04:41.661Z,2.30
2022-10-08T02:07:16.995Z,2.00
2022-10-08T02:09:47.347Z,3.20
2022-10-08T02:12:14.966Z,3.45
2022-10-08T02:14:49.960Z,2.15
2022-10-08T02:17:44.906Z,2.20
2022-10-08T02:20:22.510Z,2.17
2022-10-08T02:22:59.037Z,2.22
2022-10-08T02:25:35.214Z,2.05
2022-10-08T02:28:39.974Z,1.70
2022-10-08T02:31:18.934Z,2.40
2022-10-08T02:33:57.167Z,2.72
2022-10-08T02:36:34.506Z,3.00
2022-10-08T02:39:06.322Z,2.50
2022-10-08T02:41:44.458Z,3.70
2022-10-08T02:44:47.302Z,2.33
2022-10-08T02:47:19.513Z,2.03
2022-10-08T02:49:54.168Z,3.15
2022-10-08T02:54:52.846Z,2.95
2022-10-08T02:57:35.548Z,1.63
2022-10-08T03:00:04.141Z,4.30
2022-10-08T03:02:49.372Z,2.38
2022-10-08T03:05:19.675Z,1.65
2022-10-08T03:07:50.483Z,2.13
2022-10-08T03:10:19.881Z,2.13
2022-10-08T03:12:47.938Z,2.33
2022-10-08T03:15:15.952Z,1.98
2022-10-08T03:17:46.722Z,2.03
2022-10-08T03:20:14.896Z,2.67
2022-10-08T03:22:42.262Z,2.70
2022-10-08T03:25:09.723Z,2.60
2022-10-08T03:27:37.032Z,1.73
2022-10-08T03:30:05.052Z,1.70
2022-10-08T03:32:32.335Z,2.13
2022-10-08T03:34:59.617Z,1.85
2022-10-08T03:37:26.856Z,1.70
2022-10-08T03:39:54.143Z,1.67
2022-10-08T03:42:21.474Z,2.90
2022-10-08T03:44:48.751Z,1.50
2022-10-08T03:47:16.121Z,1.60
2022-10-08T03:49:43.469Z,1.88
2022-10-08T03:52:10.707Z,2.13
2022-10-08T03:54:38.069Z,1.42
2022-10-08T03:57:05.676Z,3.40
2022-10-08T03:59:33.002Z,1.85
2022-10-08T04:02:00.409Z,1.92
2022-10-08T04:04:27.673Z,1.83
2022-10-08T04:06:54.991Z,2.38
2022-10-08T04:09:22.309Z,1.52
2022-10-08T04:11:49.579Z,1.67
2022-10-08T04:14:16.821Z,2.03
2022-10-08T04:16:44.039Z,1.48
2022-10-08T04:19:12.238Z,1.55
2022-10-08T04:21:39.677Z,1.60
2022-10-08T04:24:07.492Z,2.03
2022-10-08T04:26:34.764Z,1.33
2022-10-08T04:29:02.108Z,1.38
2022-10-08T04:31:29.485Z,1.73
2022-10-08T04:33:57.228Z,1.48
2022-10-08T04:36:25.379Z,1.13
2022-10-08T04:38:53.096Z,2.20
2022-10-08T04:41:23.284Z,2.28
2022-10-08T04:43:51.496Z,3.15
2022-10-08T04:46:21.415Z,2.47
2022-10-08T04:48:52.177Z,1.42
2022-10-08T04:51:20.180Z,1.48
2022-10-08T04:53:47.655Z,1.92
2022-10-08T04:56:21.064Z,2.28
2022-10-08T04:58:48.687Z,2.45
2022-10-08T05:01:18.789Z,1.95
2022-10-08T05:03:49.084Z,3.40
2022-10-08T05:06:18.739Z,1.38
2022-10-08T05:08:47.014Z,1.25
2022-10-08T05:11:15.590Z,1.65
2022-10-08T05:13:42.910Z,1.23
2022-10-08T05:16:12.708Z,1.30
2022-10-08T05:18:41.735Z,1.80
2022-10-08T05:21:12.486Z,2.20
2022-10-08T05:23:42.586Z,1.42
2022-10-08T05:26:28.753Z,2.35
2022-10-08T05:29:10.578Z,1.70
2022-10-08T05:31:38.807Z,1.58
2022-10-08T05:34:06.433Z,2.47
2022-10-08T05:36:34.873Z,1.55
2022-10-08T05:39:04.709Z,1.40
2022-10-08T05:41:34.337Z,2.22
2022-10-08T05:44:04.818Z,3.22
2022-10-08T05:46:34.271Z,1.42
2022-10-08T05:49:03.452Z,1.60
2022-10-08T05:51:31.296Z,2.20
2022-10-08T05:54:00.355Z,2.00
2022-10-08T05:56:28.806Z,1.88
2022-10-08T05:58:56.075Z,1.90
2022-10-08T06:01:31.609Z,1.40
2022-10-08T06:04:07.907Z,2.08
2022-10-08T06:06:38.696Z,3.53
2022-10-08T06:09:07.368Z,1.27
2022-10-08T06:11:36.441Z,1.20
2022-10-08T06:14:04.932Z,1.33
2022-10-08T06:16:32.328Z,2.30
2022-10-08T06:19:02.057Z,2.33
2022-10-08T06:21:31.036Z,0.88
2022-10-08T06:24:04.982Z,2.47
2022-10-08T06:26:36.146Z,1.25
2022-10-08T06:29:05.728Z,1.63
2022-10-08T06:31:37.143Z,2.33
2022-10-08T06:34:05.057Z,1.95
2022-10-08T06:36:34.047Z,2.45
2022-10-08T06:39:04.358Z,2.25
2022-10-08T06:41:34.837Z,2.22
2022-10-08T06:44:04.598Z,1.40
2022-10-08T06:46:32.597Z,2.55
2022-10-08T06:49:01.230Z,2.33
2022-10-08T06:51:29.400Z,1.30
2022-10-08T06:54:02.851Z,2.55
2022-10-08T06:56:36.045Z,1.15
2022-10-08T06:59:04.437Z,1.65
2022-10-08T07:01:34.094Z,1.48
2022-10-08T07:04:02.765Z,1.75
2022-10-08T07:06:30.454Z,1.58
2022-10-08T07:09:00.137Z,1.58
2022-10-08T07:11:28.000Z,2.08
2022-10-08T07:13:59.397Z,1.85
2022-10-08T07:16:28.419Z,1.92
2022-10-08T07:18:58.619Z,0.98
2022-10-08T07:21:27.375Z,1.45
2022-10-08T07:23:54.631Z,1.60
2022-10-08T07:26:28.094Z,2.33
2022-10-08T07:29:01.265Z,1.15
2022-10-08T07:31:34.401Z,2.15
2022-10-08T07:34:04.540Z,1.60
2022-10-08T07:36:32.242Z,1.88
2022-10-08T07:39:02.459Z,1.70
2022-10-08T07:41:30.427Z,1.30
2022-10-08T07:43:59.881Z,2.55
2022-10-08T07:46:32.362Z,2.10
2022-10-08T07:49:01.546Z,1.40
2022-10-08T07:51:31.488Z,1.88
2022-10-08T07:54:02.566Z,1.98
2022-10-08T07:56:30.831Z,1.17
2022-10-08T07:58:59.728Z,1.45
2022-10-08T08:01:30.585Z,3.03
2022-10-08T08:04:08.999Z,1.50
2022-10-08T08:06:45.460Z,2.13
2022-10-08T08:09:14.339Z,2.58
2022-10-08T08:11:41.895Z,1.48
2022-10-08T08:14:09.253Z,1.42
2022-10-08T08:16:36.882Z,2.67
2022-10-08T08:19:04.901Z,1.63
2022-10-08T08:21:35.033Z,2.08
2022-10-08T08:24:11.855Z,2.05
2022-10-08T08:26:41.523Z,1.75
2022-10-08T08:29:12.032Z,1.23
2022-10-08T08:31:45.126Z,1.77
2022-10-08T08:34:15.978Z,2.38
2022-10-08T08:36:46.090Z,2.38
2022-10-08T08:39:24.910Z,1.38
2022-10-08T08:42:25.359Z,2.72
2022-10-08T08:45:03.424Z,2.40
2022-10-08T08:48:15.691Z,2.25
2022-10-08T08:50:48.749Z,2.22
2022-10-08T08:53:17.386Z,2.47
2022-10-08T08:55:47.536Z,1.42
2022-10-08T08:58:42.030Z,3.28
2022-10-08T09:01:09.298Z,2.88
2022-10-08T09:03:49.216Z,2.47
2022-10-08T09:06:22.725Z,3.28
2022-10-08T09:09:22.350Z,3.10
2022-10-08T09:11:50.163Z,2.17
2022-10-08T09:14:20.178Z,2.47
2022-10-08T09:16:48.172Z,1.83
2022-10-08T09:19:15.442Z,2.45
2022-10-08T09:21:42.705Z,3.17
2022-10-08T09:24:11.155Z,2.40
2022-10-08T09:26:38.416Z,3.85
2022-10-08T09:29:06.987Z,1.88
2022-10-08T09:31:44.357Z,2.35
2022-10-08T09:34:13.215Z,2.58
2022-10-08T09:36:46.526Z,3.28
2022-10-08T09:39:25.641Z,2.97
2022-10-08T09:42:08.119Z,3.38
2022-10-08T09:44:59.079Z,1.73
2022-10-08T09:47:27.563Z,2.13
2022-10-08T09:50:06.073Z,5.63
2022-10-08T09:52:36.240Z,5.95
2022-10-08T09:55:17.747Z,2.38
2022-10-08T09:57:54.495Z,4.40
2022-10-08T10:00:33.013Z,4.47
2022-10-08T10:03:03.034Z,6.32
2022-10-08T10:05:36.571Z,8.73
2022-10-08T10:08:04.573Z,5.63
2022-10-08T10:10:48.609Z,4.47
2022-10-08T10:13:32.588Z,5.03
2022-10-08T10:16:04.030Z,5.15
2022-10-08T10:18:57.091Z,9.43
2022-10-08T10:21:36.974Z,4.22
2022-10-08T10:24:35.709Z,3.22
2022-10-08T10:27:14.823Z,3.58
2022-10-08T10:30:04.460Z,4.78
2022-10-08T10:32:41.630Z,3.55
2022-10-08T10:35:29.726Z,3.53
2022-10-08T10:38:22.217Z,3.30
2022-10-08T10:41:18.510Z,2.63
2022-10-08T10:43:57.668Z,5.35
2022-10-08T10:47:01.496Z,3.70
2022-10-08T10:49:38.366Z,4.03
2022-10-08T10:52:33.746Z,3.38
2022-10-08T10:55:38.617Z,11.88
2022-10-08T10:58:14.612Z,2.20
2022-10-08T11:00:51.138Z,3.97
2022-10-08T11:03:39.106Z,6.72
2022-10-08T11:06:46.208Z,4.55
2022-10-08T11:09:33.147Z,5.93
2022-10-08T11:12:21.370Z,2.90
2022-10-08T11:15:22.442Z,4.45
2022-10-08T11:18:01.718Z,3.10
2022-10-08T11:20:52.714Z,2.17
2022-10-08T11:23:23.166Z,2.25
2022-10-08T11:26:22.445Z,3.97
2022-10-08T11:29:11.952Z,3.90
2022-10-08T11:31:53.985Z,3.20
2022-10-08T11:34:29.756Z,2.65
2022-10-08T11:37:08.835Z,1.42
2022-10-08T11:40:13.826Z,2.50
2022-10-08T11:43:05.594Z,1.92
2022-10-08T11:45:41.232Z,1.48
2022-10-08T11:48:36.196Z,4.43
2022-10-08T11:51:21.975Z,4.70
2022-10-08T11:54:10.301Z,8.18
2022-10-08T11:56:40.746Z,8.35
2022-10-08T11:59:16.383Z,8.10
2022-10-08T12:01:51.813Z,9.63
2022-10-08T12:04:34.421Z,10.10
2022-10-08T12:07:16.985Z,7.72
2022-10-08T12:10:07.209Z,5.80
2022-10-08T12:12:50.165Z,11.85
2022-10-08T12:15:27.823Z,7.60
2022-10-08T12:17:56.825Z,9.75
2022-10-08T12:20:26.723Z,11.35
2022-10-08T12:23:19.752Z,6.90
2022-10-08T12:25:48.957Z,6.53
2022-10-08T12:28:22.301Z,5.93
2022-10-08T12:31:00.985Z,8.07
2022-10-08T12:33:31.507Z,5.30
2022-10-08T12:36:20.053Z,10.90
2022-10-08T12:38:51.049Z,8.02
2022-10-08T12:41:39.877Z,10.75
2022-10-08T12:44:38.462Z,8.82
2022-10-08T12:47:38.210Z,11.10
2022-10-08T12:50:50.459Z,10.35
2022-10-08T12:53:18.705Z,12.13
2022-10-08T12:55:52.647Z,6.25
2022-10-08T12:58:24.025Z,5.22
2022-10-08T13:00:56.549Z,5.95
2022-10-08T13:03:25.409Z,5.47
2022-10-08T13:05:55.293Z,6.78
2022-10-08T13:08:37.895Z,4.57
2022-10-08T13:11:12.476Z,5.90
2022-10-08T13:13:39.868Z,9.23
2022-10-08T13:16:14.476Z,11.95
2022-10-08T13:18:48.472Z,8.77
2022-10-08T13:21:30.741Z,5.47
2022-10-08T13:23:59.059Z,8.60
2022-10-08T13:26:45.901Z,6.65
2022-10-08T13:29:22.190Z,5.57
2022-10-08T13:32:14.257Z,7.53
2022-10-08T13:34:43.639Z,7.22
2022-10-08T13:37:24.645Z,6.88
2022-10-08T13:40:05.309Z,6.97
2022-10-08T13:42:35.774Z,8.27
2022-10-08T13:45:12.808Z,6.45
2022-10-08T13:47:40.096Z,6.07
2022-10-08T13:50:07.972Z,7.93
2022-10-08T13:52:36.143Z,8.13
2022-10-08T13:55:06.588Z,9.85
2022-10-08T13:57:33.939Z,9.65
2022-10-08T14:00:01.247Z,8.13
2022-10-08T14:02:28.566Z,9.25
2022-10-08T14:04:55.794Z,5.88
2022-10-08T14:07:27.386Z,9.65
2022-10-08T14:09:57.454Z,10.90
2022-10-08T14:12:27.006Z,10.05
2022-10-08T14:14:54.760Z,6.43
2022-10-08T14:17:22.500Z,5.40
2022-10-08T14:19:49.987Z,6.35
2022-10-08T14:22:18.052Z,4.38
2022-10-08T14:24:45.429Z,5.53
2022-10-08T14:27:12.849Z,5.13
2022-10-08T14:29:40.342Z,4.97
2022-10-08T14:32:10.463Z,6.82
2022-10-08T14:34:39.123Z,9.30
2022-10-08T14:37:06.739Z,8.20
2022-10-08T14:39:34.230Z,13.45
2022-10-08T14:42:01.553Z,10.55
2022-10-08T14:44:28.875Z,6.57
2022-10-08T14:46:56.333Z,7.85
2022-10-08T14:49:24.188Z,7.15
2022-10-08T14:51:51.488Z,6.65
2022-10-08T14:54:19.106Z,5.50
2022-10-08T14:56:47.299Z,6.65
2022-10-08T14:59:14.880Z,7.20
2022-10-08T15:01:42.235Z,8.50
2022-10-08T15:04:14.310Z,6.18
2022-10-08T15:06:42.043Z,4.50
2022-10-08T15:09:12.120Z,7.03
2022-10-08T15:11:39.819Z,7.15
2022-10-08T15:14:07.335Z,8.40
2022-10-08T15:16:35.225Z,8.75
2022-10-08T15:19:02.706Z,13.20
2022-10-08T15:21:30.075Z,14.05
2022-10-08T15:23:57.373Z,9.75
2022-10-08T15:26:24.805Z,12.90
2022-10-08T15:28:53.708Z,7.85
2022-10-08T15:31:25.495Z,6.28
2022-10-08T15:33:54.569Z,6.35
2022-10-08T15:36:25.417Z,7.40
2022-10-08T15:39:01.593Z,9.98
2022-10-08T15:41:30.929Z,8.45
2022-10-08T15:44:29.525Z,9.88
2022-10-08T15:47:08.408Z,8.95
2022-10-08T15:49:40.750Z,8.00
2022-10-08T15:52:12.242Z,9.80
2022-10-08T15:54:40.905Z,8.63
2022-10-08T15:57:10.327Z,8.50
2022-10-08T15:59:38.059Z,7.55
2022-10-08T16:02:05.925Z,10.68
2022-10-08T16:04:33.665Z,7.82
2022-10-08T16:07:01.047Z,11.88
2022-10-08T16:09:28.730Z,10.48
2022-10-08T16:11:56.106Z,7.45
2022-10-08T16:14:25.790Z,9.48
2022-10-08T16:16:53.976Z,8.30
2022-10-08T16:19:24.462Z,9.95
2022-10-08T16:21:53.535Z,6.65
2022-10-08T16:24:21.387Z,6.30
2022-10-08T16:26:48.932Z,5.38
2022-10-08T16:29:17.880Z,6.40
2022-10-08T16:31:46.415Z,6.65
2022-10-08T16:34:22.587Z,7.20
2022-10-08T16:36:51.350Z,6.10
2022-10-08T16:39:21.086Z,6.53
2022-10-08T16:41:49.180Z,7.97
2022-10-08T16:44:18.974Z,5.55
2022-10-08T16:46:50.392Z,8.40
2022-10-08T16:49:24.114Z,5.60
2022-10-08T16:51:58.010Z,7.25
2022-10-08T16:54:25.865Z,6.93
2022-10-08T16:56:53.457Z,5.43
2022-10-08T16:59:23.558Z,4.55
2022-10-08T17:01:54.214Z,6.35
2022-10-08T17:04:23.735Z,4.85
2022-10-08T17:06:51.344Z,5.78
2022-10-08T17:09:18.904Z,5.95
2022-10-08T17:11:46.295Z,5.78
2022-10-08T17:14:13.700Z,6.07
2022-10-08T17:16:43.574Z,4.78
2022-10-08T17:19:11.418Z,5.35
2022-10-08T17:21:39.219Z,6.38
2022-10-08T17:24:07.256Z,5.30
2022-10-08T17:26:34.611Z,5.50
2022-10-08T17:29:06.840Z,4.45
2022-10-08T17:31:35.250Z,4.55
2022-10-08T17:34:04.163Z,4.47
2022-10-08T17:36:36.311Z,4.68
2022-10-08T17:39:06.784Z,5.45
2022-10-08T17:41:38.142Z,5.72
2022-10-08T17:44:07.646Z,4.72
2022-10-08T17:46:47.386Z,6.90
2022-10-08T17:49:16.418Z,5.18
2022-10-08T17:51:44.149Z,4.80
2022-10-08T17:54:17.218Z,4.97
2022-10-08T17:56:45.316Z,5.22
2022-10-08T17:59:19.907Z,4.22
2022-10-08T18:04:17.494Z,5.30
2022-10-08T18:06:46.789Z,4.60
2022-10-08T18:09:20.047Z,4.07
2022-10-08T18:11:52.053Z,4.43
2022-10-08T18:14:20.498Z,4.00
2022-10-08T18:16:48.789Z,4.55
2022-10-08T18:19:16.965Z,3.83
2022-10-08T18:21:44.357Z,4.53
2022-10-08T18:24:11.762Z,3.20
2022-10-08T18:26:39.185Z,3.53
2022-10-08T18:29:10.061Z,3.67
2022-10-08T18:31:39.105Z,4.70
2022-10-08T18:34:17.800Z,4.22
2022-10-08T18:36:46.102Z,3.83
2022-10-08T18:39:16.277Z,3.83
2022-10-08T18:41:46.066Z,2.53
2022-10-08T18:44:22.981Z,3.55
2022-10-08T18:46:51.403Z,4.22
2022-10-08T18:49:24.234Z,3.80
2022-10-08T18:51:51.597Z,4.85
2022-10-08T18:54:19.013Z,3.22
2022-10-08T18:56:46.482Z,2.97
2022-10-08T18:59:16.933Z,3.25
2022-10-08T19:01:47.066Z,3.30
2022-10-08T19:04:20.427Z,2.45
2022-10-08T19:06:49.853Z,3.20
2022-10-08T19:09:17.841Z,4.68
2022-10-08T19:11:49.386Z,3.17
2022-10-08T19:14:19.265Z,3.65
2022-10-08T19:16:47.088Z,4.05
2022-10-08T19:19:18.298Z,3.17
2022-10-08T19:21:46.699Z,3.13
2022-10-08T19:24:20.033Z,4.25
2022-10-08T19:26:49.708Z,2.47
2022-10-08T19:29:19.663Z,4.22
2022-10-08T19:31:47.854Z,3.00
2022-10-08T19:34:20.465Z,3.15
2022-10-08T19:36:47.983Z,3.25
2022-10-08T19:39:21.255Z,2.63
2022-10-08T19:41:48.983Z,3.50
2022-10-08T19:44:19.442Z,3.90
2022-10-08T19:46:47.003Z,2.85
2022-10-08T19:49:14.694Z,2.70
2022-10-08T19:51:42.470Z,3.15
2022-10-08T19:54:10.290Z,2.88
2022-10-08T19:56:37.750Z,3.28
2022-10-08T19:59:05.971Z,2.80
2022-10-08T20:01:36.127Z,3.60
2022-10-08T20:04:05.451Z,3.30
2022-10-08T20:06:36.274Z,2.95
2022-10-08T20:09:05.089Z,2.70
2022-10-08T20:11:33.556Z,3.67
2022-10-08T20:14:01.154Z,3.45
2022-10-08T20:16:35.692Z,2.97
2022-10-08T20:21:36.092Z,4.50
2022-10-08T20:24:04.616Z,2.72
2022-10-08T20:26:35.157Z,4.20
2022-10-08T20:29:05.268Z,2.90
2022-10-08T20:31:38.816Z,2.53
2022-10-08T20:34:10.096Z,3.05
2022-10-08T20:36:37.882Z,2.80
2022-10-08T20:39:06.180Z,2.95
2022-10-08T20:41:33.687Z,2.92
2022-10-08T20:44:03.071Z,4.15
2022-10-08T20:46:32.800Z,2.85
2022-10-08T20:49:00.925Z,3.80
2022-10-08T20:51:29.551Z,3.63
2022-10-08T20:53:58.201Z,4.32
2022-10-08T20:56:26.559Z,4.15
2022-10-08T20:58:54.627Z,2.80
2022-10-08T21:01:27.939Z,4.10
2022-10-08T21:03:55.456Z,3.47
2022-10-08T21:06:28.335Z,3.33
2022-10-08T21:08:57.827Z,3.80
2022-10-08T21:11:27.743Z,2.95
2022-10-08T21:13:56.440Z,3.60
2022-10-08T21:16:29.393Z,2.95
2022-10-08T21:18:59.212Z,4.13
2022-10-08T21:21:27.901Z,3.58
2022-10-08T21:23:55.528Z,4.72
2022-10-08T21:26:28.846Z,5.68
2022-10-08T21:29:01.651Z,4.43
2022-10-08T21:31:31.153Z,5.03
2022-10-08T21:33:59.951Z,5.78
2022-10-08T21:36:36.759Z,3.38
2022-10-08T21:39:06.727Z,6.45
2022-10-08T21:41:35.908Z,5.47
2022-10-08T21:44:05.889Z,8.05
2022-10-08T21:46:36.451Z,5.30
2022-10-08T21:49:11.412Z,7.18
2022-10-08T21:51:39.102Z,4.07
2022-10-08T21:54:07.227Z,5.32
2022-10-08T21:56:36.671Z,4.82
2022-10-08T21:59:06.081Z,5.65
2022-10-08T22:01:40.909Z,6.55
2022-10-08T22:04:14.224Z,3.45
2022-10-08T22:06:44.688Z,5.32
2022-10-08T22:09:14.996Z,3.33
2022-10-08T22:11:42.444Z,6.00
2022-10-08T22:14:10.437Z,4.65
2022-10-08T22:16:38.249Z,4.93
2022-10-08T22:19:06.533Z,5.65
2022-10-08T22:21:34.270Z,5.40
2022-10-08T22:24:01.606Z,5.80
2022-10-08T22:26:38.138Z,4.32
2022-10-08T22:29:05.991Z,5.22
2022-10-08T22:31:34.259Z,4.72
2022-10-08T22:34:01.652Z,5.55
2022-10-08T22:36:31.426Z,4.13
2022-10-08T22:38:59.999Z,5.30
2022-10-08T22:41:32.265Z,6.07
2022-10-08T22:44:00.457Z,2.67
2022-10-08T22:46:30.831Z,4.40
2022-10-08T22:49:04.003Z,4.03
2022-10-08T22:51:31.613Z,5.82
2022-10-08T22:53:58.992Z,5.47
2022-10-08T22:56:29.375Z,4.20
2022-10-08T22:58:58.217Z,4.40
2022-10-08T23:01:27.796Z,4.75
2022-10-08T23:03:55.619Z,4.63
2022-10-08T23:06:28.146Z,3.65
2022-10-08T23:08:57.726Z,4.43
2022-10-08T23:11:25.909Z,3.83
2022-10-08T23:13:55.568Z,5.00
2022-10-08T23:16:23.917Z,4.32
2022-10-08T23:18:57.244Z,4.43
2022-10-08T23:21:25.134Z,5.25
2022-10-08T23:23:53.829Z,3.50
2022-10-08T23:26:22.645Z,3.58
2022-10-08T23:28:55.642Z,4.20
2022-10-08T23:31:25.878Z,3.67
2022-10-08T23:33:54.695Z,3.67
2022-10-08T23:36:25.250Z,3.33
2022-10-08T23:38:52.923Z,3.72
2022-10-08T23:41:20.550Z,2.35
2022-10-08T23:43:50.138Z,3.65
2022-10-08T23:46:20.543Z,3.10
2022-10-08T23:48:48.963Z,2.55
2022-10-08T23:51:17.695Z,4.70
2022-10-08T23:53:46.103Z,3.97
2022-10-08T23:56:14.375Z,3.75
2022-10-08T23:58:42.650Z,3.58
